ADDS METAR Data INFO
IDs: Format: Raw Decoded Include TAF

Data at: 0301 UTC 21 Jan 2018

PHNL 210253Z 06013KT 10SM FEW018 SCT033 BKN050 26/19 A2998 RMK AO2 SLP152 VCSH N-NE-E T02560194 55000 PNO $
PHNL 210210Z 01007KT 10SM FEW017 SCT024 BKN033 26/21 A2997 RMK AO2 VCSH W AND NE T02610206 PNO $
PHNL 210153Z 02005KT 10SM FEW017 BKN024 BKN035 25/20 A2997 RMK AO2 RAE10 SLP149 VCSH W-NW-N-NE T02500200 PNO $
PHNL 210053Z VRB04KT 10SM -RA FEW017 BKN024 BKN035 26/21 A2997 RMK AO2 RAE27B36 SLP147 T02610211 PNO $
PHNL 210032Z 00000KT 10SM BKN024 OVC030 26/21 A2998 RMK AO2 RAE27 T02610206 PNO $
PHNL 210022Z 00000KT 8SM -RA SCT024 OVC030 26/20 A2998 RMK AO2 T02560200 PNO $
PHNL 210002Z 00000KT 7SM -RA BKN028 BKN035 OVC044 25/19 A2998 RMK AO2 T02500194 PNO $
PHNL 202353Z COR 06003KT 2 1/2SM -RA TWR 5SM BKN033 OVC043 25/19 A2998 RMK AO2 TWR VSBY 5+SM VIS 1 3/4V4 RAB02E17B40 SLP152 60000 T02500194 10278 20233 58025 PNO $
PHNL 202350Z 06003KT 2 1/2SM RA BKN035 OVC045 25/19 A2998 RMK AO2 VIS 1 3/4V5 RAB02E17B40 P0000
PHNL 202300Z 05007KT 10SM BKN026 BKN035 BKN046 26/18 A3001 RMK AO2 T02610183
PHNL 202253Z 12003KT 10SM SCT026 BKN033 BKN048 26/18 A3001 RMK AO2 RAB43E53 SLP162 P0000 T02610183
PHNL 202153Z 16007KT 10SM FEW028 BKN040 BKN055 28/17 A3003 RMK AO2 SLP169 VCSH NW-N-NE T02780172
PHNL 202053Z VRB05KT 10SM FEW028 SCT039 27/18 A3006 RMK AO2 SLP178 VCSH N T02720183 50005
PHNL 201953Z 13006KT 10SM FEW021 SCT035 SCT045 SCT200 26/19 A3006 RMK AO2 SLP180 T02610189
PHNL 201853Z 35003KT 10SM FEW025 BKN032 BKN050 26/20 A3005 RMK AO2 SLP175 VCSH NW-N-NE T02560200
PHNL 201836Z 32004KT 10SM SCT026 BKN034 BKN050 24/19 A3005 RMK AO2 T02440194
PHNL 201829Z 32004KT 10SM BKN029 BKN034 BKN050 24/19 A3005 RMK AO2 T02390194
PHNL 201753Z 30005KT 10SM FEW025 BKN039 BKN050 23/19 A3004 RMK AO2 RAE23 SLP173 VCSH NW-N-NE P0000 60000 T02330189 10244 20228 53004
PHNL 201653Z 02003KT 10SM -RA FEW020 BKN036 BKN047 24/19 A3004 RMK AO2 RAB49 SLP171 P0000 T02390189
PHNL 201553Z 05004KT 10SM FEW022 FEW033 SCT044 23/19 A3003 RMK AO2 SLP169 VCSH NE-E T02330189
PHNL 201519Z 35003KT 10SM BKN028 BKN035 23/19 A3004 RMK AO2 T02330194
PHNL 201453Z 00000KT 10SM FEW023 SCT050 23/19 A3003 RMK AO2 SLP169 T02280189 55008
PHNL 201353Z 09004KT 10SM FEW023 BKN050 23/19 A3003 RMK AO2 SLP168 T02330194
PHNL 201253Z 00000KT 10SM FEW023 BKN050 24/19 A3004 RMK AO2 SLP171 T02390189
PHNL 201153Z 01005KT 10SM FEW023 BKN050 23/19 A3005 RMK AO2 SLP177 60000 T02330194 10250 20233 58009
PHNL 201053Z 00000KT 10SM FEW022 SCT045 24/19 A3007 RMK AO2 SLP181 T02390194
PHNL 200953Z 08005KT 10SM FEW023 BKN046 24/19 A3007 RMK AO2 SLP182 T02390189 402890233
PHNL 200853Z 07005KT 10SM FEW022 SCT041 BKN050 24/19 A3008 RMK AO2 RAB20E32 SLP186 P0000 60000 T02440194 51005
PHNL 200753Z 07004KT 10SM FEW019 SCT037 BKN042 25/19 A3008 RMK AO2 SLP186 T02500194
PHNL 200653Z 06005KT 10SM FEW020 SCT036 BKN044 24/19 A3008 RMK AO2 RAB35E49 SLP184 P0000 T02440194
PHNL 200553Z 06008KT 10SM FEW025 SCT033 BKN048 25/19 A3007 RMK AO2 SLP181 60000 T02500189 10289 20250 51009
PHNL 200453Z 07010KT 10SM FEW024 SCT046 BKN055 25/19 A3006 RMK AO2 SLP179 VCSH E T02500189
PHNL 200353Z 06010KT 10SM FEW023 SCT030 BKN045 26/19 A3005 RMK AO2 RAB39E52 SLP175 VCSH NW AND NE-E P0000 T02560194
PHNL 200253Z 03009KT 10SM FEW022 SCT037 BKN050 27/19 A3004 RMK AO2 SLP172 VCSH NE 60000 T02670189 53003
PHNL 200153Z 03014KT 10SM FEW023 SCT038 BKN055 28/18 A3003 RMK AO2 RAB0055E0059 SLP169 VCSH N-NE P0000 T02780183
PHNL 200053Z 05008KT 10SM FEW024 SCT037 BKN045 27/19 A3003 RMK AO2 RAB42E52 SLP169 VCSH NE P0000 T02670194
PHNL 192353Z 08010KT 10SM FEW023 SCT032 SCT060 28/19 A3003 RMK AO2 SLP169 60000 T02830189 10283 20244 58026
PHNL 192253Z 06015G20KT 10SM FEW023 SCT035 SCT065 28/19 A3006 RMK AO2 SLP179 T02780189
PHNL 192153Z 07014G22KT 10SM FEW025 SCT035 SCT065 27/19 A3008 RMK AO2 RAE2059B20E24 SLP186 P0000 T02720189
PHNL 192053Z 07013KT 10SM -RA FEW025 SCT037 BKN060 26/19 A3011 RMK AO2 RAB42 SLP195 P0000 60000 T02610194 50003
PHNL 191953Z 08016G23KT 10SM FEW024 SCT035 BKN060 26/19 A3012 RMK AO2 SLP198 T02560189
PHNL 191853Z 08015G20KT 10SM FEW023 SCT035 26/18 A3011 RMK AO2 SLP195 VCSH NE T02560183
PHNL 191753Z 07012KT 10SM FEW023 SCT035 BKN050 24/19 A3010 RMK AO2 SLP192 60000 T02440189 10244 20233 53005
PHNL 191653Z 06016G22KT 10SM FEW025 SCT032 BKN050 24/18 A3009 RMK AO2 RAE01B33E51 SLP189 P0000 T02390183
PHNL 191553Z 06012G20KT 10SM -RA FEW024 SCT033 24/18 A3009 RMK AO2 RAB04E14B52 SLP188 VCSH NE-E P0000 T02390183